createdAt,value
2023-05-14T00:00:39.980Z,26.22
2023-05-14T00:01:40.039Z,26.21
2023-05-14T00:02:40.132Z,26.22
2023-05-14T00:03:40.226Z,26.24
2023-05-14T00:04:40.149Z,26.21
2023-05-14T00:05:40.067Z,26.18
2023-05-14T00:06:40.076Z,26.20
2023-05-14T00:07:40.096Z,26.22
2023-05-14T00:08:40.182Z,26.20
2023-05-14T00:09:40.070Z,26.21
2023-05-14T00:10:40.072Z,26.21
2023-05-14T00:11:40.087Z,26.21
2023-05-14T00:12:40.057Z,26.22
2023-05-14T00:13:40.054Z,26.22
2023-05-14T00:14:40.065Z,26.20
2023-05-14T00:15:40.061Z,26.21
2023-05-14T00:16:40.046Z,26.20
2023-05-14T00:17:40.050Z,26.20
2023-05-14T00:18:40.077Z,26.20
2023-05-14T00:19:40.040Z,26.21
2023-05-14T00:20:40.294Z,26.20
2023-05-14T00:21:40.035Z,26.18
2023-05-14T00:22:40.042Z,26.18
2023-05-14T00:23:40.035Z,26.20
2023-05-14T00:24:40.035Z,26.20
2023-05-14T00:25:40.034Z,26.18
2023-05-14T00:26:40.018Z,26.20
2023-05-14T00:27:40.016Z,26.22
2023-05-14T00:28:40.054Z,26.18
2023-05-14T00:29:40.104Z,26.20
2023-05-14T00:30:40.169Z,26.18
2023-05-14T00:31:40.301Z,26.17
2023-05-14T00:32:40.272Z,26.20
2023-05-14T00:33:40.327Z,26.20
2023-05-14T00:34:40.359Z,26.18
2023-05-14T00:35:40.379Z,26.18
2023-05-14T00:36:40.426Z,26.15
2023-05-14T00:37:40.481Z,26.18
2023-05-14T00:38:40.526Z,26.21
2023-05-14T00:39:40.579Z,26.18
2023-05-14T00:40:40.624Z,26.18
2023-05-14T00:41:40.669Z,26.18
2023-05-14T00:42:40.725Z,26.17
2023-05-14T00:43:40.746Z,26.20
2023-05-14T00:44:40.829Z,26.17
2023-05-14T00:45:40.833Z,26.20
2023-05-14T00:46:40.923Z,26.15
2023-05-14T00:47:41.069Z,26.17
2023-05-14T00:48:40.984Z,26.17
2023-05-14T00:49:41.024Z,26.17
2023-05-14T00:50:41.063Z,26.18
2023-05-14T00:51:41.119Z,26.17
2023-05-14T00:52:41.157Z,26.17
2023-05-14T00:53:41.220Z,26.17
2023-05-14T00:54:41.278Z,26.17
2023-05-14T00:55:41.302Z,26.18
2023-05-14T00:56:41.357Z,26.17
2023-05-14T00:57:41.398Z,26.20
2023-05-14T00:58:41.478Z,26.17
2023-05-14T00:59:41.488Z,26.17
2023-05-14T01:00:41.574Z,26.18
2023-05-14T01:01:41.572Z,26.14
2023-05-14T01:02:41.736Z,26.17
2023-05-14T01:03:41.761Z,26.18
2023-05-14T01:04:41.822Z,26.17
2023-05-14T01:05:41.842Z,26.17
2023-05-14T01:06:41.858Z,26.17
2023-05-14T01:07:41.870Z,26.15
2023-05-14T01:08:41.926Z,26.18
2023-05-14T01:09:41.962Z,26.14
2023-05-14T01:10:42.020Z,26.15
2023-05-14T01:11:42.047Z,26.17
2023-05-14T01:12:42.108Z,26.17
2023-05-14T01:13:42.141Z,26.15
2023-05-14T01:14:42.212Z,26.15
2023-05-14T01:15:42.253Z,26.14
2023-05-14T01:16:42.336Z,26.15
2023-05-14T01:17:42.446Z,26.14
2023-05-14T01:18:42.474Z,26.15
2023-05-14T01:19:42.443Z,26.14
2023-05-14T01:20:42.482Z,26.15
2023-05-14T01:21:42.515Z,26.15
2023-05-14T01:22:42.561Z,26.14
2023-05-14T01:23:42.598Z,26.15
2023-05-14T01:24:42.659Z,26.13
2023-05-14T01:25:42.684Z,26.15
2023-05-14T01:26:42.711Z,26.14
2023-05-14T01:27:42.760Z,26.13
2023-05-14T01:28:42.806Z,26.14
2023-05-14T01:29:42.856Z,26.13
2023-05-14T01:30:42.913Z,26.14
2023-05-14T01:31:43.009Z,26.14
2023-05-14T01:32:43.035Z,26.14
2023-05-14T01:33:43.055Z,26.13
2023-05-14T01:34:43.103Z,26.15
2023-05-14T01:35:43.170Z,26.14
2023-05-14T01:36:43.228Z,26.14
2023-05-14T01:37:43.287Z,26.14
2023-05-14T01:38:43.312Z,26.11
2023-05-14T01:39:43.352Z,26.13
2023-05-14T01:40:43.411Z,26.14
2023-05-14T01:41:43.452Z,26.13
2023-05-14T01:42:43.536Z,26.13
2023-05-14T01:43:43.555Z,26.13
2023-05-14T01:44:43.601Z,26.09
2023-05-14T01:45:43.702Z,26.13
2023-05-14T01:46:43.677Z,26.13
2023-05-14T01:47:43.756Z,26.13
2023-05-14T01:48:43.748Z,26.13
2023-05-14T01:49:43.748Z,26.11
2023-05-14T01:50:43.733Z,26.13
2023-05-14T01:51:43.720Z,26.11
2023-05-14T01:52:43.711Z,26.13
2023-05-14T01:53:43.696Z,26.13
2023-05-14T01:54:43.698Z,26.11
2023-05-14T01:55:43.703Z,26.09
2023-05-14T01:56:43.678Z,26.11
2023-05-14T01:57:43.671Z,26.11
2023-05-14T01:58:43.658Z,26.09
2023-05-14T01:59:43.668Z,26.13
2023-05-14T02:00:43.650Z,26.11
2023-05-14T02:01:43.675Z,26.11
2023-05-14T02:02:43.726Z,26.13
2023-05-14T02:03:43.686Z,26.11
2023-05-14T02:04:43.618Z,26.09
2023-05-14T02:05:43.599Z,26.08
2023-05-14T02:06:43.594Z,26.11
2023-05-14T02:07:43.608Z,26.08
2023-05-14T02:08:43.567Z,26.08
2023-05-14T02:09:43.560Z,26.08
2023-05-14T02:10:43.563Z,26.07
2023-05-14T02:11:43.551Z,26.08
2023-05-14T02:12:43.558Z,26.08
2023-05-14T02:13:43.541Z,26.09
2023-05-14T02:14:43.525Z,26.08
2023-05-14T02:15:43.566Z,26.09
2023-05-14T02:16:43.610Z,26.08
2023-05-14T02:17:43.669Z,26.08
2023-05-14T02:18:43.696Z,26.07
2023-05-14T02:19:43.715Z,26.08
2023-05-14T02:20:43.765Z,26.09
2023-05-14T02:21:43.809Z,26.09
2023-05-14T02:22:43.875Z,26.07
2023-05-14T02:23:43.882Z,26.08
2023-05-14T02:24:43.956Z,26.09
2023-05-14T02:25:44.018Z,26.08
2023-05-14T02:26:44.074Z,26.08
2023-05-14T02:27:44.117Z,26.09
2023-05-14T02:28:44.160Z,26.07
2023-05-14T02:29:44.226Z,26.07
2023-05-14T02:30:44.279Z,26.07
2023-05-14T02:31:44.413Z,26.08
2023-05-14T02:32:44.462Z,26.08
2023-05-14T02:33:44.477Z,26.08
2023-05-14T02:34:44.495Z,26.08
2023-05-14T02:35:44.553Z,26.07
2023-05-14T02:36:44.595Z,26.08
2023-05-14T02:37:44.661Z,26.08
2023-05-14T02:38:44.716Z,26.09
2023-05-14T02:39:44.779Z,26.08
2023-05-14T02:40:44.830Z,26.08
2023-05-14T02:41:44.883Z,26.07
2023-05-14T02:42:44.950Z,26.07
2023-05-14T02:43:45.003Z,26.08
2023-05-14T02:44:45.066Z,26.07
2023-05-14T02:45:45.118Z,26.07
2023-05-14T02:46:45.224Z,26.07
2023-05-14T02:47:45.284Z,26.05
2023-05-14T02:48:45.303Z,26.05
2023-05-14T02:49:45.367Z,26.05
2023-05-14T02:50:45.418Z,26.03
2023-05-14T02:51:45.469Z,25.97
2023-05-14T02:52:45.547Z,25.91
2023-05-14T02:53:45.608Z,25.87
2023-05-14T02:54:45.690Z,25.81
2023-05-14T02:55:45.730Z,25.77
2023-05-14T02:56:45.745Z,25.72
2023-05-14T02:57:45.773Z,25.66
2023-05-14T02:58:45.794Z,25.63
2023-05-14T02:59:45.782Z,25.56
2023-05-14T03:00:45.860Z,25.50
2023-05-14T03:01:45.830Z,25.46
2023-05-14T03:02:45.901Z,25.43
2023-05-14T03:03:45.810Z,25.39
2023-05-14T03:04:45.814Z,25.36
2023-05-14T03:05:45.803Z,25.31
2023-05-14T03:06:45.804Z,25.28
2023-05-14T03:07:45.823Z,25.24
2023-05-14T03:08:45.820Z,25.19
2023-05-14T03:09:45.848Z,25.15
2023-05-14T03:10:45.831Z,25.11
2023-05-14T03:11:45.824Z,25.07
2023-05-14T03:12:45.870Z,25.04
2023-05-14T03:13:45.860Z,25.01
2023-05-14T03:14:45.883Z,24.98
2023-05-14T03:15:45.885Z,24.94
2023-05-14T03:16:45.955Z,24.91
2023-05-14T03:17:45.950Z,24.90
2023-05-14T03:18:45.978Z,24.86
2023-05-14T03:19:45.946Z,24.84
2023-05-14T03:20:45.964Z,24.83
2023-05-14T03:21:46.005Z,24.79
2023-05-14T03:22:46.049Z,24.74
2023-05-14T03:23:46.104Z,24.74
2023-05-14T03:24:46.131Z,24.69
2023-05-14T03:25:46.132Z,24.66
2023-05-14T03:26:46.147Z,24.66
2023-05-14T03:27:46.154Z,24.66
2023-05-14T03:28:46.189Z,24.63
2023-05-14T03:29:46.200Z,24.63
2023-05-14T03:30:46.270Z,24.60
2023-05-14T03:31:46.243Z,24.60
2023-05-14T03:32:46.282Z,24.62
2023-05-14T03:33:46.269Z,24.58
2023-05-14T03:34:46.282Z,24.59
2023-05-14T03:35:46.334Z,24.55
2023-05-14T03:36:46.353Z,24.52
2023-05-14T03:37:46.328Z,24.52
2023-05-14T03:38:46.356Z,24.49
2023-05-14T03:39:46.378Z,24.48
2023-05-14T03:40:46.407Z,24.48
2023-05-14T03:41:46.435Z,24.48
2023-05-14T03:42:46.447Z,24.46
2023-05-14T03:43:46.454Z,24.43
2023-05-14T03:44:46.465Z,24.43
2023-05-14T03:45:46.487Z,24.40
2023-05-14T03:46:46.508Z,24.40
2023-05-14T03:47:46.557Z,24.42
2023-05-14T03:48:46.612Z,24.36
2023-05-14T03:49:46.678Z,24.39
2023-05-14T03:50:46.740Z,24.38
2023-05-14T03:51:46.832Z,24.35
2023-05-14T03:52:46.825Z,24.36
2023-05-14T03:53:46.852Z,24.36
2023-05-14T03:54:46.861Z,24.35
2023-05-14T03:55:46.895Z,24.32
2023-05-14T03:56:46.897Z,24.32
2023-05-14T03:57:46.918Z,24.32
2023-05-14T03:58:46.940Z,24.31
2023-05-14T03:59:46.960Z,24.29
2023-05-14T04:00:46.990Z,24.29
2023-05-14T04:01:47.035Z,24.29
2023-05-14T04:02:47.160Z,24.29
2023-05-14T04:03:47.262Z,24.26
2023-05-14T04:04:47.260Z,24.26
2023-05-14T04:05:47.329Z,24.25
2023-05-14T04:06:47.347Z,24.25
2023-05-14T04:07:47.404Z,24.25
2023-05-14T04:08:47.401Z,24.22
2023-05-14T04:09:47.423Z,24.22
2023-05-14T04:10:47.450Z,24.21
2023-05-14T04:11:47.478Z,24.21
2023-05-14T04:12:47.511Z,24.22
2023-05-14T04:13:47.533Z,24.19
2023-05-14T04:14:47.556Z,24.18
2023-05-14T04:15:47.650Z,24.18
2023-05-14T04:16:47.769Z,24.15
2023-05-14T04:17:47.853Z,24.15
2023-05-14T04:18:47.971Z,24.16
2023-05-14T04:19:47.931Z,24.16
2023-05-14T04:20:47.970Z,24.15
2023-05-14T04:21:47.978Z,24.16
2023-05-14T04:22:48.028Z,24.14
2023-05-14T04:23:48.042Z,24.14
2023-05-14T04:24:48.080Z,24.14
2023-05-14T04:25:48.095Z,24.12
2023-05-14T04:26:48.111Z,24.11
2023-05-14T04:27:48.128Z,24.09
2023-05-14T04:28:48.217Z,24.09
2023-05-14T04:29:48.242Z,24.09
2023-05-14T04:30:48.293Z,24.09
2023-05-14T04:31:48.334Z,24.07
2023-05-14T04:32:48.335Z,24.07
2023-05-14T04:33:48.359Z,24.09
2023-05-14T04:34:48.370Z,24.07
2023-05-14T04:35:48.404Z,24.05
2023-05-14T04:36:48.465Z,24.05
2023-05-14T04:37:48.520Z,24.05
2023-05-14T04:38:48.617Z,24.05
2023-05-14T04:39:48.707Z,24.03
2023-05-14T04:40:48.812Z,24.05
2023-05-14T04:41:48.947Z,24.03
2023-05-14T04:42:48.995Z,23.98
2023-05-14T04:43:49.103Z,24.00
2023-05-14T04:44:49.181Z,24.01
2023-05-14T04:45:49.365Z,23.97
2023-05-14T04:46:49.364Z,23.97
2023-05-14T04:47:49.458Z,23.96
2023-05-14T04:48:49.505Z,23.93
2023-05-14T04:49:49.540Z,23.96
2023-05-14T04:50:49.564Z,23.96
2023-05-14T04:51:49.578Z,23.97
2023-05-14T04:52:49.601Z,23.91
2023-05-14T04:53:49.628Z,23.91
2023-05-14T04:54:49.706Z,23.91
2023-05-14T04:55:49.688Z,23.91
2023-05-14T04:56:49.706Z,23.91
2023-05-14T04:57:49.729Z,23.90
2023-05-14T04:58:49.747Z,23.90
2023-05-14T04:59:49.766Z,23.91
2023-05-14T05:00:49.831Z,23.91
2023-05-14T05:01:49.802Z,23.91
2023-05-14T05:02:49.885Z,23.90
2023-05-14T05:03:49.870Z,23.93
2023-05-14T05:04:49.872Z,23.93
2023-05-14T05:05:49.923Z,23.96
2023-05-14T05:06:49.917Z,23.93
2023-05-14T05:07:49.943Z,23.94
2023-05-14T05:08:49.950Z,23.93
2023-05-14T05:09:49.986Z,23.96
2023-05-14T05:10:50.047Z,23.94
2023-05-14T05:11:50.108Z,23.96
2023-05-14T05:12:50.177Z,23.96
2023-05-14T05:13:50.261Z,23.96
2023-05-14T05:14:50.314Z,23.93
2023-05-14T05:15:50.393Z,23.96
2023-05-14T05:16:50.375Z,23.94
2023-05-14T05:17:50.485Z,23.93
2023-05-14T05:18:50.464Z,23.93
2023-05-14T05:19:50.456Z,23.91
2023-05-14T05:20:50.484Z,23.93
2023-05-14T05:21:50.500Z,23.91
2023-05-14T05:22:50.536Z,23.93
2023-05-14T05:23:50.566Z,23.91
2023-05-14T05:24:50.583Z,23.91
2023-05-14T05:25:50.678Z,23.93
2023-05-14T05:26:50.728Z,23.93
2023-05-14T05:27:50.765Z,23.90
2023-05-14T05:28:50.796Z,23.90
2023-05-14T05:29:50.828Z,23.90
2023-05-14T05:30:50.836Z,23.88
2023-05-14T05:31:50.880Z,23.91
2023-05-14T05:32:50.909Z,23.91
2023-05-14T05:33:50.917Z,23.93
2023-05-14T05:34:50.931Z,23.90
2023-05-14T05:35:50.956Z,23.91
2023-05-14T05:36:50.983Z,23.91
2023-05-14T05:37:51.017Z,23.90
2023-05-14T05:38:51.031Z,23.90
2023-05-14T05:39:51.057Z,23.91
2023-05-14T05:40:51.077Z,23.93
2023-05-14T05:41:51.103Z,23.94
2023-05-14T05:42:51.129Z,23.93
2023-05-14T05:43:51.142Z,23.93
2023-05-14T05:44:51.178Z,23.93
2023-05-14T05:45:51.235Z,23.93
2023-05-14T05:46:51.361Z,23.93
2023-05-14T05:47:51.439Z,23.93
2023-05-14T05:48:51.503Z,23.93
2023-05-14T05:49:51.573Z,23.90
2023-05-14T05:50:51.680Z,23.93
2023-05-14T05:51:51.779Z,23.93
2023-05-14T05:52:51.838Z,23.94
2023-05-14T05:53:51.897Z,23.93
2023-05-14T05:54:51.950Z,23.91
2023-05-14T05:55:52.022Z,23.90
2023-05-14T05:56:52.108Z,23.91
2023-05-14T05:57:52.139Z,23.91
2023-05-14T05:58:52.193Z,23.88
2023-05-14T05:59:52.277Z,23.91
2023-05-14T06:00:52.352Z,23.91
2023-05-14T06:01:52.495Z,23.91
2023-05-14T06:02:52.565Z,23.88
2023-05-14T06:03:52.604Z,23.93
2023-05-14T06:04:52.732Z,23.93
2023-05-14T06:05:52.925Z,23.91
2023-05-14T06:06:52.883Z,23.91
2023-05-14T06:07:52.960Z,23.91
2023-05-14T06:08:53.050Z,23.91
2023-05-14T06:09:53.141Z,23.91
2023-05-14T06:10:53.214Z,23.91
2023-05-14T06:11:53.306Z,23.93
2023-05-14T06:12:53.403Z,23.91
2023-05-14T06:13:53.509Z,23.91
2023-05-14T06:14:53.552Z,23.93
2023-05-14T06:15:53.631Z,23.93
2023-05-14T06:16:53.765Z,23.94
2023-05-14T06:17:53.735Z,23.94
2023-05-14T06:18:53.764Z,23.94
2023-05-14T06:19:53.765Z,23.97
2023-05-14T06:20:53.759Z,23.94
2023-05-14T06:21:53.779Z,23.96
2023-05-14T06:22:53.791Z,23.96
2023-05-14T06:23:53.814Z,23.97
2023-05-14T06:24:53.848Z,23.93
2023-05-14T06:25:53.863Z,23.94
2023-05-14T06:26:53.935Z,23.96
2023-05-14T06:27:54.009Z,23.97
2023-05-14T06:28:54.095Z,23.97
2023-05-14T06:29:54.174Z,23.98
2023-05-14T06:30:54.251Z,23.93
2023-05-14T06:31:54.394Z,23.96
2023-05-14T06:32:54.533Z,23.97
2023-05-14T06:33:54.549Z,23.97
2023-05-14T06:34:54.633Z,23.98
2023-05-14T06:35:54.710Z,23.98
2023-05-14T06:36:54.807Z,23.97
2023-05-14T06:37:54.888Z,23.98
2023-05-14T06:38:54.982Z,24.00
2023-05-14T06:39:57.671Z,23.96
2023-05-14T06:40:55.080Z,23.98
2023-05-14T06:41:55.099Z,23.98
2023-05-14T06:42:55.120Z,23.98
2023-05-14T06:43:55.157Z,23.97
2023-05-14T06:44:55.159Z,23.97
2023-05-14T06:45:55.197Z,23.94
2023-05-14T06:46:55.204Z,23.97
2023-05-14T06:47:55.333Z,24.00
2023-05-14T06:48:56.760Z,24.01
2023-05-14T06:49:55.274Z,24.00
2023-05-14T06:50:55.296Z,24.00
2023-05-14T06:51:55.336Z,24.00
2023-05-14T06:52:55.362Z,24.01
2023-05-14T06:53:55.375Z,24.03
2023-05-14T06:54:55.395Z,24.01
2023-05-14T06:55:55.430Z,24.00
2023-05-14T06:56:55.479Z,24.00
2023-05-14T06:57:55.484Z,24.01
2023-05-14T06:58:55.513Z,24.01
2023-05-14T06:59:55.532Z,24.03
2023-05-14T07:00:55.548Z,24.01
2023-05-14T07:01:55.662Z,24.01
2023-05-14T07:02:55.634Z,24.03
2023-05-14T07:03:55.646Z,24.04
2023-05-14T07:04:55.667Z,24.05
2023-05-14T07:05:55.669Z,24.04
2023-05-14T07:06:55.715Z,24.05
2023-05-14T07:07:55.747Z,24.05
2023-05-14T07:08:55.753Z,24.05
2023-05-14T07:09:55.794Z,24.05
2023-05-14T07:10:55.828Z,24.05
2023-05-14T07:11:55.850Z,24.07
2023-05-14T07:12:55.904Z,24.08
2023-05-14T07:13:56.008Z,24.07
2023-05-14T07:14:56.063Z,24.08
2023-05-14T07:15:56.156Z,24.07
2023-05-14T07:16:56.314Z,24.08
2023-05-14T07:17:56.352Z,24.11
2023-05-14T07:18:56.469Z,24.11
2023-05-14T07:19:56.497Z,24.12
2023-05-14T07:20:56.565Z,24.14
2023-05-14T07:21:56.672Z,24.14
2023-05-14T07:22:56.737Z,24.16
2023-05-14T07:23:56.829Z,24.16
2023-05-14T07:24:56.891Z,24.21
2023-05-14T07:25:56.962Z,24.22
2023-05-14T07:26:57.072Z,24.21
2023-05-14T07:27:57.096Z,24.26
2023-05-14T07:28:57.174Z,24.28
2023-05-14T07:29:57.261Z,24.29
2023-05-14T07:30:57.333Z,24.32
2023-05-14T07:31:57.405Z,24.32
2023-05-14T07:32:57.475Z,24.34
2023-05-14T07:33:57.520Z,24.38
2023-05-14T07:34:57.583Z,24.38
2023-05-14T07:35:57.694Z,24.39
2023-05-14T07:36:57.742Z,24.42
2023-05-14T07:37:57.787Z,24.45
2023-05-14T07:38:57.854Z,24.45
2023-05-14T07:39:57.934Z,24.48
2023-05-14T07:40:57.966Z,24.51
2023-05-14T07:41:58.063Z,24.46
2023-05-14T07:42:58.118Z,24.49
2023-05-14T07:43:58.203Z,24.48
2023-05-14T07:44:58.243Z,24.48
2023-05-14T07:45:58.303Z,24.49
2023-05-14T07:46:58.392Z,24.49
2023-05-14T07:47:58.560Z,24.49
2023-05-14T07:48:58.504Z,24.46
2023-05-14T07:49:58.571Z,24.48
2023-05-14T07:50:58.645Z,24.48
2023-05-14T07:51:58.709Z,24.48
2023-05-14T07:52:58.763Z,24.48
2023-05-14T07:53:58.826Z,24.46
2023-05-14T07:54:58.896Z,24.49
2023-05-14T07:55:58.997Z,24.45
2023-05-14T07:56:59.057Z,24.48
2023-05-14T07:57:59.127Z,24.48
2023-05-14T07:58:59.172Z,24.46
2023-05-14T07:59:59.259Z,24.48
2023-05-14T08:00:59.322Z,24.49
2023-05-14T08:01:59.472Z,24.49
2023-05-14T08:02:59.697Z,24.49
2023-05-14T08:03:59.601Z,24.52
2023-05-14T08:04:59.592Z,24.49
2023-05-14T08:05:59.683Z,24.51
2023-05-14T08:06:59.740Z,24.51
2023-05-14T08:07:59.843Z,24.51
2023-05-14T08:08:59.886Z,24.49
2023-05-14T08:09:59.955Z,24.48
2023-05-14T08:11:00.061Z,24.51
2023-05-14T08:12:00.100Z,24.51
2023-05-14T08:13:00.198Z,24.53
2023-05-14T08:14:00.234Z,24.52
2023-05-14T08:15:00.325Z,24.53
2023-05-14T08:16:00.378Z,24.52
2023-05-14T08:17:00.506Z,24.55
2023-05-14T08:18:00.584Z,24.55
2023-05-14T08:19:00.701Z,24.58
2023-05-14T08:20:00.642Z,24.60
2023-05-14T08:21:03.190Z,24.62
2023-05-14T08:22:00.735Z,24.62
2023-05-14T08:23:00.734Z,24.60
2023-05-14T08:24:00.769Z,24.62
2023-05-14T08:25:00.770Z,24.62
2023-05-14T08:26:00.779Z,24.60
2023-05-14T08:27:00.816Z,24.60
2023-05-14T08:28:00.798Z,24.62
2023-05-14T08:29:00.809Z,24.63
2023-05-14T08:30:00.840Z,24.63
2023-05-14T08:31:00.893Z,24.66
2023-05-14T08:32:08.375Z,24.66
2023-05-14T08:33:01.918Z,24.62
2023-05-14T08:34:00.862Z,24.64
2023-05-14T08:35:00.878Z,24.64
2023-05-14T08:36:00.876Z,24.63
2023-05-14T08:37:00.912Z,24.66
2023-05-14T08:38:00.904Z,24.66
2023-05-14T08:39:00.905Z,24.64
2023-05-14T08:40:00.950Z,24.64
2023-05-14T08:41:00.966Z,24.66
2023-05-14T08:42:01.002Z,24.66
2023-05-14T08:43:00.942Z,24.66
2023-05-14T08:44:01.005Z,24.69
2023-05-14T08:45:01.082Z,24.66
2023-05-14T08:46:01.141Z,24.67
2023-05-14T08:47:01.197Z,24.70
2023-05-14T08:48:01.383Z,24.70
2023-05-14T08:49:01.370Z,24.70
2023-05-14T08:50:01.412Z,24.73
2023-05-14T08:51:01.454Z,24.73
2023-05-14T08:52:01.536Z,24.77
2023-05-14T08:53:01.570Z,24.84
2023-05-14T08:54:01.604Z,24.88
2023-05-14T08:55:01.654Z,24.93
2023-05-14T08:56:01.690Z,24.97
2023-05-14T08:57:01.716Z,25.01
2023-05-14T08:58:01.743Z,25.04
2023-05-14T08:59:01.785Z,25.08
2023-05-14T09:00:01.846Z,25.14
2023-05-14T09:01:01.841Z,25.18
2023-05-14T09:02:01.982Z,25.21
2023-05-14T09:03:01.972Z,25.25
2023-05-14T09:04:01.922Z,25.28
2023-05-14T09:05:01.936Z,25.32
2023-05-14T09:06:01.952Z,25.33
2023-05-14T09:07:02.020Z,25.39
2023-05-14T09:08:01.981Z,25.41
2023-05-14T09:09:01.987Z,25.43
2023-05-14T09:10:02.064Z,25.46
2023-05-14T09:11:02.006Z,25.49
2023-05-14T09:12:02.035Z,25.52
2023-05-14T09:13:02.036Z,25.54
2023-05-14T09:14:02.038Z,25.56
2023-05-14T09:15:02.042Z,25.58
2023-05-14T09:16:02.126Z,25.62
2023-05-14T09:17:02.107Z,25.63
2023-05-14T09:18:02.158Z,25.66
2023-05-14T09:19:02.171Z,25.66
2023-05-14T09:20:02.133Z,25.68
2023-05-14T09:21:02.198Z,25.72
2023-05-14T09:22:02.243Z,25.70
2023-05-14T09:23:02.313Z,25.72
2023-05-14T09:24:02.308Z,25.72
2023-05-14T09:25:02.355Z,25.76
2023-05-14T09:26:02.400Z,25.79
2023-05-14T09:27:02.493Z,25.79
2023-05-14T09:28:02.548Z,25.81
2023-05-14T09:29:02.701Z,25.80
2023-05-14T09:30:02.665Z,25.81
2023-05-14T09:31:02.736Z,25.83
2023-05-14T09:32:02.854Z,25.84
2023-05-14T09:33:02.962Z,25.84
2023-05-14T09:34:02.933Z,25.86
2023-05-14T09:35:03.003Z,25.86
2023-05-14T09:36:03.073Z,25.86
2023-05-14T09:37:03.188Z,25.87
2023-05-14T09:38:03.206Z,25.88
2023-05-14T09:39:03.266Z,25.88
2023-05-14T09:40:03.310Z,25.88
2023-05-14T09:41:03.385Z,25.88
2023-05-14T09:42:03.451Z,25.91
2023-05-14T09:43:03.485Z,25.90
2023-05-14T09:44:05.437Z,25.88
2023-05-14T09:45:03.530Z,25.90
2023-05-14T09:46:03.532Z,25.88
2023-05-14T09:47:03.602Z,25.88
2023-05-14T09:48:03.646Z,25.88
2023-05-14T09:49:03.532Z,25.91
2023-05-14T09:50:03.529Z,25.88
2023-05-14T09:51:04.751Z,25.88
2023-05-14T09:52:03.587Z,25.90
2023-05-14T09:53:03.524Z,25.91
2023-05-14T09:54:03.529Z,25.93
2023-05-14T09:55:03.574Z,25.91
2023-05-14T09:56:03.520Z,25.90
2023-05-14T09:57:03.548Z,25.91
2023-05-14T09:58:03.521Z,25.91
2023-05-14T09:59:03.521Z,25.91
2023-05-14T10:00:03.509Z,25.93
2023-05-14T10:01:03.551Z,25.91
2023-05-14T10:02:03.517Z,25.91
2023-05-14T10:03:03.587Z,25.91
2023-05-14T10:04:03.580Z,25.93
2023-05-14T10:05:03.509Z,25.93
2023-05-14T10:06:03.509Z,25.93
2023-05-14T10:07:03.555Z,25.91
2023-05-14T10:08:03.621Z,25.93
2023-05-14T10:09:03.672Z,25.93
2023-05-14T10:10:03.744Z,25.91
2023-05-14T10:11:03.790Z,25.94
2023-05-14T10:12:03.855Z,25.96
2023-05-14T10:13:03.921Z,25.94
2023-05-14T10:14:03.973Z,25.94
2023-05-14T10:15:04.034Z,25.94
2023-05-14T10:16:04.107Z,25.93
2023-05-14T10:17:04.163Z,25.91
2023-05-14T10:18:04.229Z,25.93
2023-05-14T10:19:04.353Z,25.93
2023-05-14T10:20:04.342Z,25.94
2023-05-14T10:21:04.402Z,25.90
2023-05-14T10:22:04.483Z,25.91
2023-05-14T10:23:04.538Z,25.93
2023-05-14T10:24:04.577Z,25.91
2023-05-14T10:25:04.625Z,25.93
2023-05-14T10:26:04.679Z,25.91
2023-05-14T10:27:04.740Z,25.94
2023-05-14T10:28:04.810Z,25.93
2023-05-14T10:29:04.871Z,25.94
2023-05-14T10:30:04.930Z,25.93
2023-05-14T10:31:05.104Z,25.93
2023-05-14T10:32:05.071Z,25.91
2023-05-14T10:33:05.221Z,25.93
2023-05-14T10:34:05.218Z,25.91
2023-05-14T10:35:05.292Z,25.91
2023-05-14T10:36:05.355Z,25.93
2023-05-14T10:37:05.446Z,25.94
2023-05-14T10:38:05.489Z,25.94
2023-05-14T10:39:05.560Z,25.93
2023-05-14T10:40:05.620Z,25.96
2023-05-14T10:41:05.682Z,25.96
2023-05-14T10:42:05.738Z,25.94
2023-05-14T10:43:05.795Z,25.96
2023-05-14T10:44:05.866Z,25.96
2023-05-14T10:45:05.930Z,25.98
2023-05-14T10:46:06.010Z,25.96
2023-05-14T10:47:06.097Z,25.96
2023-05-14T10:48:06.072Z,25.96
2023-05-14T10:49:06.033Z,25.96
2023-05-14T10:50:06.102Z,25.97
2023-05-14T10:51:06.097Z,25.97
2023-05-14T10:52:06.006Z,25.98
2023-05-14T10:53:06.000Z,25.98
2023-05-14T10:54:06.000Z,26.00
2023-05-14T10:55:06.006Z,26.00
2023-05-14T10:56:06.040Z,26.01
2023-05-14T10:57:06.103Z,26.01
2023-05-14T10:58:06.188Z,26.01
2023-05-14T10:59:06.260Z,26.03
2023-05-14T11:00:06.298Z,26.01
2023-05-14T11:01:06.372Z,26.03
2023-05-14T11:02:06.479Z,26.03
2023-05-14T11:03:06.512Z,26.03
2023-05-14T11:04:06.598Z,26.04
2023-05-14T11:05:06.650Z,26.05
2023-05-14T11:06:06.661Z,26.04
2023-05-14T11:07:06.731Z,26.05
2023-05-14T11:08:06.794Z,26.07
2023-05-14T11:09:06.852Z,26.07
2023-05-14T11:10:06.908Z,26.05
2023-05-14T11:11:07.001Z,26.07
2023-05-14T11:12:07.045Z,26.05
2023-05-14T11:13:07.142Z,26.09
2023-05-14T11:14:09.547Z,26.08
2023-05-14T11:15:07.149Z,26.08
2023-05-14T11:17:07.155Z,26.09
2023-05-14T11:18:07.163Z,26.13
2023-05-14T11:19:07.153Z,26.11
2023-05-14T11:20:07.127Z,26.09
2023-05-14T11:21:07.143Z,26.14
2023-05-14T11:22:07.102Z,26.13
2023-05-14T11:23:07.109Z,26.13
2023-05-14T11:24:07.084Z,26.15
2023-05-14T11:25:07.088Z,26.14
2023-05-14T11:26:07.114Z,26.17
2023-05-14T11:27:07.070Z,26.17
2023-05-14T11:28:07.069Z,26.14
2023-05-14T11:29:07.068Z,26.17
2023-05-14T11:30:07.052Z,26.18
2023-05-14T11:31:07.056Z,26.17
2023-05-14T11:32:07.190Z,26.17
2023-05-14T11:33:07.168Z,26.17
2023-05-14T11:34:07.073Z,26.20
2023-05-14T11:35:07.080Z,26.18
2023-05-14T11:36:07.074Z,26.20
2023-05-14T11:37:07.066Z,26.20
2023-05-14T11:38:09.131Z,26.22
2023-05-14T11:39:07.050Z,26.22
2023-05-14T11:40:07.042Z,26.21
2023-05-14T11:41:07.064Z,26.21
2023-05-14T11:42:07.056Z,26.24
2023-05-14T11:43:07.062Z,26.24
2023-05-14T11:44:09.045Z,26.24
2023-05-14T11:45:07.073Z,26.24
2023-05-14T11:46:07.102Z,26.24
2023-05-14T11:47:07.042Z,26.25
2023-05-14T11:48:07.088Z,26.27
2023-05-14T11:49:07.042Z,26.27
2023-05-14T11:50:09.271Z,26.27
2023-05-14T11:51:07.229Z,26.27
2023-05-14T11:52:07.287Z,26.27
2023-05-14T11:53:07.310Z,26.27
2023-05-14T11:54:07.366Z,26.30
2023-05-14T11:55:07.354Z,26.28
2023-05-14T11:56:09.522Z,26.31
2023-05-14T11:57:07.430Z,26.28
2023-05-14T11:58:07.482Z,26.30
2023-05-14T11:59:07.474Z,26.28
2023-05-14T12:00:07.513Z,26.30
2023-05-14T12:01:07.558Z,26.31
2023-05-14T12:02:07.616Z,26.32
2023-05-14T12:03:07.719Z,26.30
2023-05-14T12:04:07.819Z,26.31
2023-05-14T12:05:07.712Z,26.32
2023-05-14T12:06:07.763Z,26.30
2023-05-14T12:07:07.770Z,26.31
2023-05-14T12:08:07.801Z,26.31
2023-05-14T12:09:07.814Z,26.31
2023-05-14T12:10:07.846Z,26.30
2023-05-14T12:11:07.876Z,26.30
2023-05-14T12:12:07.900Z,26.30
2023-05-14T12:13:07.952Z,26.30
2023-05-14T12:14:07.957Z,26.30
2023-05-14T12:15:07.988Z,26.32
2023-05-14T12:16:08.080Z,26.28
2023-05-14T12:17:08.063Z,26.30
2023-05-14T12:18:20.387Z,26.31
2023-05-14T12:19:09.116Z,26.32
2023-05-14T12:20:08.069Z,26.31
2023-05-14T12:21:08.120Z,26.30
2023-05-14T12:22:08.061Z,26.31
2023-05-14T12:23:08.052Z,26.30
2023-05-14T12:24:08.038Z,26.31
2023-05-14T12:25:08.053Z,26.31
2023-05-14T12:26:08.030Z,26.30
2023-05-14T12:27:08.046Z,26.30
2023-05-14T12:28:08.042Z,26.31
2023-05-14T12:29:08.024Z,26.31
2023-05-14T12:30:19.945Z,26.30
2023-05-14T12:31:09.036Z,26.32
2023-05-14T12:32:08.009Z,26.31
2023-05-14T12:33:08.055Z,26.31
2023-05-14T12:34:08.011Z,26.32
2023-05-14T12:35:08.021Z,26.31
2023-05-14T12:37:07.998Z,26.31
2023-05-14T12:38:07.999Z,26.31
2023-05-14T12:39:07.981Z,26.31
2023-05-14T12:40:07.985Z,26.31
2023-05-14T12:41:07.977Z,26.31
2023-05-14T12:42:07.986Z,26.32
2023-05-14T12:43:07.963Z,26.32
2023-05-14T12:44:07.966Z,26.34
2023-05-14T12:45:08.153Z,26.31
2023-05-14T12:46:07.925Z,26.31
2023-05-14T12:47:07.962Z,26.34
2023-05-14T12:48:08.006Z,26.31
2023-05-14T12:49:07.919Z,26.32
2023-05-14T12:50:07.922Z,26.31
2023-05-14T12:51:07.925Z,26.32
2023-05-14T12:52:25.660Z,26.31
2023-05-14T12:53:08.901Z,26.34
2023-05-14T12:54:07.896Z,26.32
2023-05-14T12:55:07.893Z,26.35